首页
METAR-TAF:

METAR-TAF

机场 :

阿讷西, 法国

纬度: 45-55-45N, 经度: 006-05-56E, 海拔: 463米

当前天气观测

该预报发布于18分钟前的22:30 UTC
风速5节,风向东北
温度 22°C
湿度 83%
气压 1024 hPa
能见度10公里或以上
1500米以下无云,无积雨云

METAR: LFLP 262230Z AUTO 04005KT CAVOK 22/19 Q1024

时间: 00:48 (22:48 UTC)

预报

该预报发布于8小时和48分钟前的14:00 UTC
预报有效从26日的 15点(UTC)到 27日的 15点(UTC)
风速3节,风向多变
能见度10公里或以上
1500米以下无云,无积雨云

TAF: LFLP 261400Z 2615/2715 VRB03KT CAVOK

超过4000个机场的气象观测和天气预报(METAR&TAF报告)。

可查询的气象台以黄色和红色小点在地图上表示。

将鼠标移到小点上方,可查看气象台名称。

然后点击查看天气观测和预报。

如需切换地图:点击带黑十字的绿色按钮放大地图;点击带横线的绿色按钮缩小地图;或者点击绿色箭头查看邻近地区的地图。


METAR-TAF: